createdAt,value
2018-04-30T00:01:51.351Z,17.02
2018-04-30T00:04:19.568Z,17.15
2018-04-30T00:06:47.785Z,17.15
2018-04-30T00:09:15.989Z,17.07
2018-04-30T00:11:44.945Z,17.03
2018-04-30T00:14:13.120Z,17.02
2018-04-30T00:16:42.090Z,16.89
2018-04-30T00:19:10.370Z,16.78
2018-04-30T00:21:38.554Z,16.79
2018-04-30T00:24:06.746Z,16.69
2018-04-30T00:26:34.980Z,16.58
2018-04-30T00:29:03.301Z,16.61
2018-04-30T00:31:31.485Z,16.58
2018-04-30T00:33:59.704Z,16.65
2018-04-30T00:36:27.897Z,16.64
2018-04-30T00:38:56.097Z,16.60
2018-04-30T00:41:24.311Z,16.56
2018-04-30T00:43:53.243Z,16.50
2018-04-30T00:46:21.423Z,16.45
2018-04-30T00:48:49.603Z,16.26
2018-04-30T00:51:17.795Z,16.17
2018-04-30T00:53:45.998Z,16.04
2018-04-30T00:56:14.942Z,15.98
2018-04-30T00:58:43.134Z,15.90
2018-04-30T01:01:11.309Z,15.94
2018-04-30T01:03:39.482Z,15.89
2018-04-30T01:06:07.662Z,15.76
2018-04-30T01:08:35.873Z,15.67
2018-04-30T01:11:04.832Z,15.70
2018-04-30T01:13:33.019Z,15.70
2018-04-30T01:16:01.239Z,15.74
2018-04-30T01:18:29.419Z,15.83
2018-04-30T01:20:57.612Z,15.83
2018-04-30T01:23:25.792Z,15.77
2018-04-30T01:25:53.973Z,15.76
2018-04-30T01:28:22.149Z,15.80
2018-04-30T01:30:50.382Z,15.77
2018-04-30T01:33:18.598Z,15.79
2018-04-30T01:35:46.829Z,15.76
2018-04-30T01:38:15.005Z,15.73
2018-04-30T01:40:43.198Z,15.66
2018-04-30T01:43:11.401Z,15.63
2018-04-30T01:45:39.579Z,15.68
2018-04-30T01:48:07.755Z,15.69
2018-04-30T01:50:35.975Z,15.66
2018-04-30T01:53:04.189Z,15.60
2018-04-30T01:55:32.386Z,15.48
2018-04-30T01:58:00.564Z,15.41
2018-04-30T02:00:28.762Z,15.37
2018-04-30T02:02:57.709Z,15.31
2018-04-30T02:05:25.900Z,15.23
2018-04-30T02:07:54.096Z,15.23
2018-04-30T02:10:23.040Z,15.30
2018-04-30T02:12:51.279Z,15.27
2018-04-30T02:15:20.266Z,15.30
2018-04-30T02:17:49.236Z,15.29
2018-04-30T02:20:17.423Z,15.30
2018-04-30T02:22:45.613Z,15.26
2018-04-30T02:25:13.817Z,15.30
2018-04-30T02:27:42.013Z,15.30
2018-04-30T02:30:10.195Z,15.40
2018-04-30T02:32:38.417Z,15.43
2018-04-30T02:35:07.375Z,15.20
2018-04-30T02:37:35.595Z,15.11
2018-04-30T02:40:03.800Z,15.09
2018-04-30T02:42:31.996Z,15.08
2018-04-30T02:45:00.210Z,15.07
2018-04-30T02:47:29.206Z,14.98
2018-04-30T02:49:58.158Z,15.00
2018-04-30T02:52:26.349Z,15.03
2018-04-30T02:54:54.595Z,15.00
2018-04-30T02:57:22.799Z,15.01
2018-04-30T02:59:51.786Z,15.00
2018-04-30T03:02:19.989Z,14.97
2018-04-30T03:04:48.956Z,14.92
2018-04-30T03:07:17.174Z,14.90
2018-04-30T03:09:45.387Z,14.80
2018-04-30T03:12:13.616Z,14.78
2018-04-30T03:14:42.595Z,14.81
2018-04-30T03:17:11.586Z,14.89
2018-04-30T03:19:40.547Z,14.83
2018-04-30T03:22:08.755Z,14.83
2018-04-30T03:24:37.724Z,14.78
2018-04-30T03:27:05.899Z,14.69
2018-04-30T03:29:34.115Z,14.62
2018-04-30T03:32:02.309Z,14.65
2018-04-30T03:34:30.487Z,14.62
2018-04-30T03:36:58.700Z,14.57
2018-04-30T03:39:26.909Z,14.55
2018-04-30T03:41:55.840Z,14.50
2018-04-30T03:44:24.021Z,14.45
2018-04-30T03:46:52.236Z,14.42
2018-04-30T03:49:21.249Z,14.39
2018-04-30T03:51:49.393Z,14.35
2018-04-30T03:54:17.565Z,14.33
2018-04-30T03:56:45.769Z,14.38
2018-04-30T03:59:14.718Z,14.37
2018-04-30T04:02:00.685Z,14.36
2018-04-30T04:04:46.597Z,14.37
2018-04-30T04:07:14.773Z,14.37
2018-04-30T04:09:42.948Z,14.52
2018-04-30T04:12:11.117Z,14.58
2018-04-30T04:14:39.318Z,14.50
2018-04-30T04:17:07.532Z,14.49
2018-04-30T04:19:35.717Z,14.46
2018-04-30T04:22:03.891Z,14.44
2018-04-30T04:24:32.075Z,14.44
2018-04-30T04:27:00.264Z,14.52
2018-04-30T04:29:28.450Z,14.62
2018-04-30T04:31:56.663Z,14.64
2018-04-30T04:34:25.605Z,14.62
2018-04-30T04:36:53.794Z,14.67
2018-04-30T04:39:21.998Z,14.76
2018-04-30T04:41:50.940Z,14.87
2018-04-30T04:44:19.112Z,14.92
2018-04-30T04:46:47.289Z,14.96
2018-04-30T04:49:15.477Z,15.02
2018-04-30T04:51:43.728Z,15.01
2018-04-30T04:54:11.892Z,14.98
2018-04-30T04:56:40.080Z,15.08
2018-04-30T04:59:08.315Z,15.07
2018-04-30T05:01:37.280Z,15.07
2018-04-30T05:04:05.449Z,15.13
2018-04-30T05:06:33.649Z,15.16
2018-04-30T05:09:01.820Z,15.15
2018-04-30T05:11:29.993Z,15.21
2018-04-30T05:13:58.167Z,15.23
2018-04-30T05:16:26.350Z,15.29
2018-04-30T05:18:55.295Z,15.29
2018-04-30T05:21:23.475Z,15.31
2018-04-30T05:23:51.657Z,15.37
2018-04-30T05:26:19.825Z,15.41
2018-04-30T05:28:48.005Z,15.44
2018-04-30T05:31:16.953Z,15.53
2018-04-30T05:33:45.952Z,15.70
2018-04-30T05:36:14.163Z,15.91
2018-04-30T05:38:42.365Z,16.02
2018-04-30T05:41:10.552Z,16.12
2018-04-30T05:43:39.530Z,16.23
2018-04-30T05:46:07.740Z,16.27
2018-04-30T05:48:36.680Z,16.30
2018-04-30T05:51:04.986Z,16.38
2018-04-30T05:53:33.194Z,16.42
2018-04-30T05:56:01.371Z,16.50
2018-04-30T05:58:29.549Z,16.61
2018-04-30T06:00:57.757Z,16.66
2018-04-30T06:03:25.959Z,16.77
2018-04-30T06:05:54.139Z,16.89
2018-04-30T06:08:23.121Z,16.90
2018-04-30T06:10:51.303Z,16.95
2018-04-30T06:13:19.494Z,16.99
2018-04-30T06:15:48.437Z,17.01
2018-04-30T06:18:16.617Z,17.10
2018-04-30T06:20:44.801Z,17.16
2018-04-30T06:23:13.024Z,17.22
2018-04-30T06:25:41.198Z,17.35
2018-04-30T06:28:10.292Z,17.36
2018-04-30T06:30:39.241Z,17.36
2018-04-30T06:33:07.417Z,17.55
2018-04-30T06:35:35.603Z,17.58
2018-04-30T06:38:03.780Z,17.62
2018-04-30T06:40:31.976Z,17.72
2018-04-30T06:43:00.929Z,17.81
2018-04-30T06:45:29.100Z,17.96
2018-04-30T06:47:57.287Z,18.07
2018-04-30T06:50:25.462Z,18.19
2018-04-30T06:52:53.649Z,18.32
2018-04-30T06:55:21.884Z,18.43
2018-04-30T06:57:50.079Z,18.54
2018-04-30T07:00:19.045Z,18.65
2018-04-30T07:02:47.272Z,18.69
2018-04-30T07:05:16.234Z,18.81
2018-04-30T07:07:44.417Z,18.97
2018-04-30T07:10:12.590Z,19.09
2018-04-30T07:12:40.776Z,19.20
2018-04-30T07:15:08.991Z,19.38
2018-04-30T07:17:37.177Z,19.42
2018-04-30T07:20:05.443Z,19.58
2018-04-30T07:22:33.602Z,19.66
2018-04-30T07:25:02.589Z,19.73
2018-04-30T07:27:31.549Z,19.90
2018-04-30T07:29:59.742Z,20.03
2018-04-30T07:32:27.919Z,20.14
2018-04-30T07:34:56.115Z,20.25
2018-04-30T07:37:25.165Z,20.22
2018-04-30T07:39:53.365Z,20.41
2018-04-30T07:42:21.545Z,20.49
2018-04-30T07:44:50.513Z,20.61
2018-04-30T07:47:18.705Z,20.76
2018-04-30T07:49:46.890Z,20.86
2018-04-30T07:52:15.848Z,20.93
2018-04-30T07:54:44.043Z,21.02
2018-04-30T07:57:12.301Z,21.22
2018-04-30T07:59:41.187Z,21.33
2018-04-30T08:02:09.369Z,21.52
2018-04-30T08:04:37.573Z,21.64
2018-04-30T08:07:06.518Z,21.88
2018-04-30T08:09:34.694Z,22.00
2018-04-30T08:12:02.872Z,22.05
2018-04-30T08:14:31.669Z,22.24
2018-04-30T08:16:59.868Z,22.64
2018-04-30T08:19:28.042Z,22.89
2018-04-30T08:21:56.225Z,23.10
2018-04-30T08:24:24.460Z,23.26
2018-04-30T08:26:52.696Z,23.21
2018-04-30T08:29:20.848Z,23.22
2018-04-30T08:31:49.008Z,23.42
2018-04-30T08:34:17.200Z,23.78
2018-04-30T08:36:45.445Z,24.13
2018-04-30T08:39:13.625Z,24.12
2018-04-30T08:41:41.790Z,24.01
2018-04-30T08:44:09.972Z,23.88
2018-04-30T08:46:38.169Z,23.77
2018-04-30T08:49:06.355Z,23.98
2018-04-30T08:51:35.297Z,24.12
2018-04-30T08:54:03.479Z,24.52
2018-04-30T08:56:31.660Z,24.83
2018-04-30T08:58:59.827Z,25.02
2018-04-30T09:01:28.005Z,24.85
2018-04-30T09:03:56.173Z,24.96
2018-04-30T09:06:24.373Z,24.61
2018-04-30T09:08:52.586Z,24.63
2018-04-30T09:11:21.552Z,24.65
2018-04-30T09:13:49.753Z,24.97
2018-04-30T09:16:18.699Z,24.96
2018-04-30T09:18:46.903Z,25.24
2018-04-30T09:21:15.855Z,25.46
2018-04-30T09:23:44.052Z,25.61
2018-04-30T09:26:12.245Z,25.60
2018-04-30T09:28:40.447Z,25.03
2018-04-30T09:31:08.634Z,25.49
2018-04-30T09:33:36.805Z,25.78
2018-04-30T09:36:04.974Z,25.89
2018-04-30T09:38:33.162Z,25.67
2018-04-30T09:41:01.344Z,25.35
2018-04-30T09:43:29.524Z,25.20
2018-04-30T09:45:57.700Z,25.27
2018-04-30T09:48:25.865Z,25.93
2018-04-30T09:50:54.057Z,26.30
2018-04-30T09:53:22.260Z,26.57
2018-04-30T09:55:50.507Z,26.78
2018-04-30T09:58:18.775Z,26.72
2018-04-30T10:00:46.952Z,26.90
2018-04-30T10:03:15.141Z,26.59
2018-04-30T10:05:43.308Z,26.65
2018-04-30T10:08:11.511Z,26.76
2018-04-30T10:10:39.687Z,27.10
2018-04-30T10:13:07.870Z,26.89
2018-04-30T10:15:36.854Z,27.41
2018-04-30T10:18:05.029Z,27.44
2018-04-30T10:20:33.209Z,28.15
2018-04-30T10:23:01.398Z,27.76
2018-04-30T10:25:30.337Z,27.94
2018-04-30T10:27:58.523Z,27.85
2018-04-30T10:30:26.713Z,27.52
2018-04-30T10:32:54.942Z,27.49
2018-04-30T10:35:23.145Z,27.49
2018-04-30T10:37:51.393Z,28.06
2018-04-30T10:40:20.312Z,28.43
2018-04-30T10:42:48.484Z,28.45
2018-04-30T10:45:16.660Z,28.39
2018-04-30T10:47:44.872Z,28.45
2018-04-30T10:50:13.833Z,28.30
2018-04-30T10:52:42.009Z,28.57
2018-04-30T10:55:10.208Z,29.16
2018-04-30T10:57:38.377Z,29.38
2018-04-30T11:00:06.553Z,29.99
2018-04-30T11:02:35.053Z,29.58
2018-04-30T11:05:03.181Z,29.11
2018-04-30T11:07:31.366Z,29.75
2018-04-30T11:09:59.562Z,29.94
2018-04-30T11:12:27.769Z,29.62
2018-04-30T11:14:56.701Z,30.01
2018-04-30T11:17:24.914Z,29.76
2018-04-30T11:19:53.906Z,30.17
2018-04-30T11:22:22.917Z,29.88
2018-04-30T11:24:51.093Z,29.72
2018-04-30T11:27:20.022Z,29.54
2018-04-30T11:29:48.201Z,29.49
2018-04-30T11:32:16.379Z,29.03
2018-04-30T11:34:44.561Z,29.52
2018-04-30T11:37:12.753Z,29.70
2018-04-30T11:39:41.705Z,30.32
2018-04-30T11:42:09.890Z,30.33
2018-04-30T11:44:38.066Z,29.10
2018-04-30T11:47:07.100Z,29.75
2018-04-30T11:49:36.045Z,29.85
2018-04-30T11:52:04.233Z,29.91
2018-04-30T11:54:32.462Z,29.65
2018-04-30T11:57:00.645Z,29.95
2018-04-30T11:59:28.841Z,30.03
2018-04-30T12:01:57.025Z,29.38
2018-04-30T12:04:25.228Z,29.22
2018-04-30T12:06:54.220Z,29.29
2018-04-30T12:09:22.407Z,29.14
2018-04-30T12:11:51.367Z,29.40
2018-04-30T12:14:19.612Z,29.51
2018-04-30T12:16:47.832Z,29.31
2018-04-30T12:19:16.029Z,30.18
2018-04-30T12:21:44.984Z,29.85
2018-04-30T12:24:13.345Z,29.38
2018-04-30T12:26:41.533Z,29.03
2018-04-30T12:29:09.711Z,30.05
2018-04-30T12:31:38.029Z,31.13
2018-04-30T12:34:06.980Z,31.17
2018-04-30T12:36:35.209Z,30.84
2018-04-30T12:39:04.169Z,31.11
2018-04-30T12:41:32.341Z,31.45
2018-04-30T12:44:00.533Z,32.91
2018-04-30T12:46:29.481Z,35.03
2018-04-30T12:48:57.717Z,36.56
2018-04-30T12:51:26.703Z,37.17
2018-04-30T12:53:55.666Z,37.85
2018-04-30T12:56:23.867Z,37.55
2018-04-30T12:58:52.829Z,37.92
2018-04-30T13:01:21.025Z,39.72
2018-04-30T13:03:50.002Z,38.33
2018-04-30T13:06:18.181Z,37.85
2018-04-30T13:08:46.354Z,40.22
2018-04-30T13:11:14.546Z,41.06
2018-04-30T13:13:43.498Z,39.59
2018-04-30T13:16:11.712Z,40.51
2018-04-30T13:18:40.679Z,38.41
2018-04-30T13:21:08.852Z,38.45
2018-04-30T13:23:37.029Z,39.31
2018-04-30T13:26:05.252Z,38.22
2018-04-30T13:28:34.302Z,36.82
2018-04-30T13:31:03.189Z,35.81
2018-04-30T13:33:31.369Z,35.94
2018-04-30T13:36:01.414Z,35.16
2018-04-30T13:38:30.359Z,36.20
2018-04-30T13:40:58.537Z,37.03
2018-04-30T13:43:26.697Z,34.16
2018-04-30T13:45:54.864Z,32.14
2018-04-30T13:48:23.040Z,32.11
2018-04-30T13:50:51.213Z,34.13
2018-04-30T13:53:19.401Z,35.31
2018-04-30T13:55:47.558Z,35.34
2018-04-30T13:58:15.771Z,35.94
2018-04-30T14:00:43.945Z,35.95
2018-04-30T14:03:12.114Z,37.00
2018-04-30T14:05:40.289Z,37.93
2018-04-30T14:08:08.468Z,37.53
2018-04-30T14:10:36.642Z,36.25
2018-04-30T14:13:04.824Z,37.26
2018-04-30T14:15:32.998Z,36.52
2018-04-30T14:18:01.173Z,36.51
2018-04-30T14:20:29.339Z,36.44
2018-04-30T14:22:58.293Z,37.26
2018-04-30T14:25:26.464Z,36.72
2018-04-30T14:27:55.393Z,35.91
2018-04-30T14:30:23.565Z,35.44
2018-04-30T14:32:51.727Z,33.97
2018-04-30T14:35:19.898Z,32.68
2018-04-30T14:37:48.070Z,30.35
2018-04-30T14:40:16.304Z,30.48
2018-04-30T14:42:44.477Z,29.99
2018-04-30T14:45:12.653Z,30.39
2018-04-30T14:47:40.851Z,31.78
2018-04-30T14:50:09.785Z,32.19
2018-04-30T14:52:37.965Z,32.60
2018-04-30T14:55:06.133Z,31.48
2018-04-30T14:57:34.296Z,30.29
2018-04-30T15:00:02.537Z,30.65
2018-04-30T15:02:31.478Z,30.85
2018-04-30T15:04:59.652Z,31.93
2018-04-30T15:07:27.821Z,30.51
2018-04-30T15:09:55.997Z,29.01
2018-04-30T15:12:24.169Z,28.48
2018-04-30T15:14:52.358Z,28.58
2018-04-30T15:17:20.540Z,28.58
2018-04-30T15:19:48.704Z,28.99
2018-04-30T15:22:16.871Z,28.63
2018-04-30T15:24:45.049Z,28.64
2018-04-30T15:27:13.226Z,28.79
2018-04-30T15:29:41.389Z,27.52
2018-04-30T15:32:09.557Z,27.99
2018-04-30T15:34:37.752Z,27.79
2018-04-30T15:37:06.693Z,28.32
2018-04-30T15:39:35.640Z,28.82
2018-04-30T15:42:03.820Z,28.81
2018-04-30T15:44:32.005Z,28.46
2018-04-30T15:47:00.196Z,28.02
2018-04-30T15:49:29.147Z,28.30
2018-04-30T15:51:58.090Z,28.53
2018-04-30T15:54:27.047Z,28.18
2018-04-30T15:56:55.227Z,27.82
2018-04-30T15:59:23.408Z,27.96
2018-04-30T16:01:51.601Z,27.84
2018-04-30T16:04:20.535Z,27.24
2018-04-30T16:06:48.710Z,26.84
2018-04-30T16:09:16.883Z,27.01
2018-04-30T16:11:45.047Z,26.87
2018-04-30T16:14:13.299Z,27.01
2018-04-30T16:16:41.409Z,26.68
2018-04-30T16:19:09.623Z,26.78
2018-04-30T16:21:37.811Z,26.83
2018-04-30T16:24:06.750Z,27.35
2018-04-30T16:26:34.932Z,26.92
2018-04-30T16:29:03.102Z,26.53
2018-04-30T16:31:31.286Z,26.49
2018-04-30T16:33:59.473Z,26.83
2018-04-30T16:36:27.666Z,26.61
2018-04-30T16:38:55.843Z,26.72
2018-04-30T16:41:24.021Z,26.60
2018-04-30T16:43:52.216Z,26.80
2018-04-30T16:46:21.150Z,26.88
2018-04-30T16:48:49.334Z,26.94
2018-04-30T16:51:17.527Z,27.28
2018-04-30T16:53:45.703Z,26.84
2018-04-30T16:56:13.877Z,26.79
2018-04-30T16:58:42.053Z,26.73
2018-04-30T17:01:10.250Z,26.68
2018-04-30T17:03:39.182Z,26.60
2018-04-30T17:06:07.363Z,26.71
2018-04-30T17:08:35.540Z,26.59
2018-04-30T17:11:03.728Z,26.43
2018-04-30T17:13:31.892Z,26.55
2018-04-30T17:16:00.912Z,26.34
2018-04-30T17:18:29.089Z,26.32
2018-04-30T17:20:57.294Z,26.13
2018-04-30T17:23:26.239Z,26.21
2018-04-30T17:25:54.433Z,26.02
2018-04-30T17:28:22.605Z,25.65
2018-04-30T17:30:50.778Z,25.56
2018-04-30T17:33:18.951Z,25.04
2018-04-30T17:35:47.133Z,24.60
2018-04-30T17:38:15.309Z,24.46
2018-04-30T17:40:43.488Z,24.28
2018-04-30T17:43:11.670Z,23.97
2018-04-30T17:45:40.633Z,23.80
2018-04-30T17:48:08.795Z,23.61
2018-04-30T17:50:37.001Z,23.47
2018-04-30T17:53:05.179Z,23.13
2018-04-30T17:55:34.130Z,22.91
2018-04-30T17:58:02.343Z,22.79
2018-04-30T18:00:30.531Z,22.56
2018-04-30T18:02:59.478Z,22.58
2018-04-30T18:05:27.648Z,22.62
2018-04-30T18:07:55.823Z,22.38
2018-04-30T18:10:24.000Z,22.42
2018-04-30T18:12:52.172Z,22.25
2018-04-30T18:15:20.346Z,22.25
2018-04-30T18:17:48.521Z,22.12
2018-04-30T18:20:16.706Z,22.07
2018-04-30T18:22:44.876Z,22.15
2018-04-30T18:25:13.092Z,22.08
2018-04-30T18:27:42.033Z,22.07
2018-04-30T18:30:10.213Z,22.15
2018-04-30T18:32:38.407Z,22.19
2018-04-30T18:35:06.592Z,22.18
2018-04-30T18:37:34.760Z,22.21
2018-04-30T18:40:02.952Z,22.11
2018-04-30T18:42:31.900Z,22.05
2018-04-30T18:45:00.081Z,21.96
2018-04-30T18:47:28.268Z,21.84
2018-04-30T18:49:56.457Z,21.76
2018-04-30T18:52:24.717Z,21.65
2018-04-30T18:54:53.648Z,21.55
2018-04-30T18:57:22.590Z,21.43
2018-04-30T18:59:50.764Z,21.28
2018-04-30T19:02:18.935Z,21.34
2018-04-30T19:04:47.137Z,21.08
2018-04-30T19:07:15.315Z,20.96
2018-04-30T19:09:43.497Z,20.88
2018-04-30T19:12:11.681Z,20.81
2018-04-30T19:14:40.670Z,20.79
2018-04-30T19:17:09.627Z,20.64
2018-04-30T19:19:37.807Z,20.58
2018-04-30T19:22:06.749Z,20.49
2018-04-30T19:24:35.697Z,20.42
2018-04-30T19:27:03.897Z,20.46
2018-04-30T19:29:32.838Z,20.46
2018-04-30T19:32:01.027Z,20.13
2018-04-30T19:34:29.206Z,20.16
2018-04-30T19:36:57.378Z,20.07
2018-04-30T19:39:25.572Z,20.08
2018-04-30T19:41:53.769Z,20.10
2018-04-30T19:44:22.783Z,19.95
2018-04-30T19:46:51.038Z,20.05
2018-04-30T19:49:19.169Z,19.99
2018-04-30T19:51:47.371Z,20.12
2018-04-30T19:54:15.545Z,19.87
2018-04-30T19:56:43.771Z,19.89
2018-04-30T19:59:11.958Z,19.72
2018-04-30T20:01:40.151Z,19.59
2018-04-30T20:04:08.322Z,19.59
2018-04-30T20:06:36.493Z,19.56
2018-04-30T20:09:04.693Z,19.49
2018-04-30T20:11:32.887Z,19.38
2018-04-30T20:14:01.839Z,19.39
2018-04-30T20:16:30.022Z,19.31
2018-04-30T20:18:58.199Z,19.24
2018-04-30T20:21:26.397Z,19.12
2018-04-30T20:23:55.355Z,19.10
2018-04-30T20:26:24.290Z,19.03
2018-04-30T20:28:53.255Z,18.99
2018-04-30T20:31:21.429Z,18.92
2018-04-30T20:33:49.686Z,18.98
2018-04-30T20:36:17.858Z,18.99
2018-04-30T20:38:46.038Z,19.02
2018-04-30T20:41:14.218Z,19.03
2018-04-30T20:43:42.905Z,18.96
2018-04-30T20:46:11.143Z,18.94
2018-04-30T20:48:39.335Z,18.96
2018-04-30T20:51:07.516Z,18.99
2018-04-30T20:53:35.713Z,19.04
2018-04-30T20:56:03.901Z,18.97
2018-04-30T20:58:33.577Z,18.91
2018-04-30T21:01:01.749Z,18.90
2018-04-30T21:03:29.955Z,18.88
2018-04-30T21:05:58.134Z,18.90
2018-04-30T21:08:26.529Z,18.73
2018-04-30T21:10:54.702Z,18.77
2018-04-30T21:13:22.888Z,18.67
2018-04-30T21:15:51.835Z,18.61
2018-04-30T21:18:20.038Z,18.55
2018-04-30T21:20:48.214Z,18.52
2018-04-30T21:23:16.397Z,18.36
2018-04-30T21:25:45.349Z,18.34
2018-04-30T21:28:13.535Z,18.36
2018-04-30T21:30:41.699Z,18.33
2018-04-30T21:33:09.873Z,18.40
2018-04-30T21:35:38.084Z,18.34
2018-04-30T21:38:06.263Z,18.35
2018-04-30T21:40:35.201Z,18.35
2018-04-30T21:43:03.366Z,18.20
2018-04-30T21:45:31.561Z,18.07
2018-04-30T21:47:59.738Z,18.04
2018-04-30T21:50:27.921Z,18.01
2018-04-30T21:52:56.093Z,17.98
2018-04-30T21:55:24.286Z,17.77
2018-04-30T21:57:52.454Z,17.71
2018-04-30T22:00:20.659Z,17.68
2018-04-30T22:02:49.601Z,17.60
2018-04-30T22:05:17.778Z,17.52
2018-04-30T22:07:45.941Z,17.54
2018-04-30T22:10:14.190Z,17.44
2018-04-30T22:12:42.439Z,17.29
2018-04-30T22:15:10.606Z,17.33
2018-04-30T22:17:38.786Z,17.28
2018-04-30T22:20:06.970Z,17.29
2018-04-30T22:22:35.917Z,17.34
2018-04-30T22:25:04.140Z,17.26
2018-04-30T22:27:33.081Z,17.22
2018-04-30T22:30:01.270Z,17.29
2018-04-30T22:32:29.455Z,17.35
2018-04-30T22:34:57.617Z,17.36
2018-04-30T22:37:25.793Z,17.37
2018-04-30T22:39:53.961Z,17.28
2018-04-30T22:42:22.150Z,17.24
2018-04-30T22:44:50.357Z,17.22
2018-04-30T22:47:19.296Z,17.23
2018-04-30T22:49:47.477Z,17.00
2018-04-30T22:52:15.672Z,16.90
2018-04-30T22:54:43.871Z,16.84
2018-04-30T22:57:12.813Z,16.84
2018-04-30T22:59:40.990Z,16.76
2018-04-30T23:02:09.173Z,16.61
2018-04-30T23:04:37.335Z,16.61
2018-04-30T23:07:05.506Z,16.60
2018-04-30T23:09:33.677Z,16.75
2018-04-30T23:12:01.850Z,16.63
2018-04-30T23:14:30.018Z,16.57
2018-04-30T23:16:58.186Z,16.50
2018-04-30T23:19:26.353Z,16.58
2018-04-30T23:21:55.299Z,16.52
2018-04-30T23:24:23.493Z,16.44
2018-04-30T23:26:51.660Z,16.42
2018-04-30T23:29:19.834Z,16.40
2018-04-30T23:31:48.010Z,16.27
2018-04-30T23:34:16.180Z,16.14
2018-04-30T23:36:44.358Z,16.02
2018-04-30T23:39:12.558Z,15.91
2018-04-30T23:41:41.491Z,15.96
2018-04-30T23:44:09.648Z,15.90
2018-04-30T23:46:37.833Z,15.94
2018-04-30T23:49:06.034Z,16.05
2018-04-30T23:51:34.207Z,16.08
2018-04-30T23:54:02.386Z,16.19
2018-04-30T23:56:30.589Z,16.20
2018-04-30T23:58:59.547Z,16.21
